sensor_id;sensor_type;location;lat;lon;timestamp;temperature;humidity
60469;DHT22;46316;47.582;10.238;2022-11-15T00:01:47;3.80;86.80
60469;DHT22;46316;47.582;10.238;2022-11-15T00:04:12;3.70;86.80
60469;DHT22;46316;47.582;10.238;2022-11-15T00:06:38;3.70;86.90
60469;DHT22;46316;47.582;10.238;2022-11-15T00:09:03;3.70;86.80
60469;DHT22;46316;47.582;10.238;2022-11-15T00:11:29;3.70;87.00
60469;DHT22;46316;47.582;10.238;2022-11-15T00:13:56;3.70;87.10
60469;DHT22;46316;47.582;10.238;2022-11-15T00:16:22;3.70;87.40
60469;DHT22;46316;47.582;10.238;2022-11-15T00:18:48;3.60;87.50
60469;DHT22;46316;47.582;10.238;2022-11-15T00:21:14;3.50;87.30
60469;DHT22;46316;47.582;10.238;2022-11-15T00:23:39;3.50;87.50
60469;DHT22;46316;47.582;10.238;2022-11-15T00:26:05;3.50;87.50
60469;DHT22;46316;47.582;10.238;2022-11-15T00:28:31;3.50;87.40
60469;DHT22;46316;47.582;10.238;2022-11-15T00:31:01;3.50;87.60
60469;DHT22;46316;47.582;10.238;2022-11-15T00:33:27;3.40;87.50
60469;DHT22;46316;47.582;10.238;2022-11-15T00:35:53;3.40;87.60
60469;DHT22;46316;47.582;10.238;2022-11-15T00:38:18;3.40;87.60
60469;DHT22;46316;47.582;10.238;2022-11-15T00:40:44;3.40;87.40
60469;DHT22;46316;47.582;10.238;2022-11-15T00:43:10;3.40;87.40
60469;DHT22;46316;47.582;10.238;2022-11-15T00:45:35;3.30;87.50
60469;DHT22;46316;47.582;10.238;2022-11-15T00:48:01;3.30;87.50
60469;DHT22;46316;47.582;10.238;2022-11-15T00:50:27;3.30;87.30
60469;DHT22;46316;47.582;10.238;2022-11-15T00:52:52;3.30;87.30
60469;DHT22;46316;47.582;10.238;2022-11-15T00:55:19;3.30;87.20
60469;DHT22;46316;47.582;10.238;2022-11-15T00:57:45;3.20;87.00
60469;DHT22;46316;47.582;10.238;2022-11-15T01:00:12;3.20;87.30
60469;DHT22;46316;47.582;10.238;2022-11-15T01:02:38;3.20;87.50
60469;DHT22;46316;47.582;10.238;2022-11-15T01:05:04;3.20;87.50
60469;DHT22;46316;47.582;10.238;2022-11-15T01:07:29;3.20;87.70
60469;DHT22;46316;47.582;10.238;2022-11-15T01:09:55;3.20;87.80
60469;DHT22;46316;47.582;10.238;2022-11-15T01:12:21;3.20;87.90
60469;DHT22;46316;47.582;10.238;2022-11-15T01:14:46;3.20;87.90
60469;DHT22;46316;47.582;10.238;2022-11-15T01:17:12;3.20;88.10
60469;DHT22;46316;47.582;10.238;2022-11-15T01:19:37;3.20;88.10
60469;DHT22;46316;47.582;10.238;2022-11-15T01:22:03;3.20;87.90
60469;DHT22;46316;47.582;10.238;2022-11-15T01:24:28;3.20;88.00
60469;DHT22;46316;47.582;10.238;2022-11-15T01:26:54;3.20;88.00
60469;DHT22;46316;47.582;10.238;2022-11-15T01:29:19;3.20;87.90
60469;DHT22;46316;47.582;10.238;2022-11-15T01:31:45;3.20;87.90
60469;DHT22;46316;47.582;10.238;2022-11-15T01:34:10;3.10;87.90
60469;DHT22;46316;47.582;10.238;2022-11-15T01:36:36;3.20;87.80
60469;DHT22;46316;47.582;10.238;2022-11-15T01:39:02;3.20;87.70
60469;DHT22;46316;47.582;10.238;2022-11-15T01:41:31;3.10;87.50
60469;DHT22;46316;47.582;10.238;2022-11-15T01:47:05;3.00;87.70
60469;DHT22;46316;47.582;10.238;2022-11-15T01:49:32;3.00;87.80
60469;DHT22;46316;47.582;10.238;2022-11-15T01:52:00;3.00;87.70
60469;DHT22;46316;47.582;10.238;2022-11-15T01:54:26;3.00;87.50
60469;DHT22;46316;47.582;10.238;2022-11-15T01:56:59;3.00;87.70
60469;DHT22;46316;47.582;10.238;2022-11-15T01:59:25;2.90;87.70
60469;DHT22;46316;47.582;10.238;2022-11-15T02:01:51;3.00;87.50
60469;DHT22;46316;47.582;10.238;2022-11-15T02:04:31;2.90;87.30
60469;DHT22;46316;47.582;10.238;2022-11-15T02:06:57;2.90;87.50
60469;DHT22;46316;47.582;10.238;2022-11-15T02:09:23;2.90;87.50
60469;DHT22;46316;47.582;10.238;2022-11-15T02:11:49;2.90;87.80
60469;DHT22;46316;47.582;10.238;2022-11-15T02:14:17;2.90;88.00
60469;DHT22;46316;47.582;10.238;2022-11-15T02:17:25;2.90;88.20
60469;DHT22;46316;47.582;10.238;2022-11-15T02:25:36;2.90;88.20
60469;DHT22;46316;47.582;10.238;2022-11-15T02:28:44;2.80;87.80
60469;DHT22;46316;47.582;10.238;2022-11-15T02:31:26;2.70;87.80
60469;DHT22;46316;47.582;10.238;2022-11-15T02:42:49;2.70;88.80
60469;DHT22;46316;47.582;10.238;2022-11-15T02:45:44;2.70;88.70
60469;DHT22;46316;47.582;10.238;2022-11-15T02:48:11;2.80;88.80
60469;DHT22;46316;47.582;10.238;2022-11-15T02:50:37;2.80;88.50
60469;DHT22;46316;47.582;10.238;2022-11-15T02:53:03;2.80;88.10
60469;DHT22;46316;47.582;10.238;2022-11-15T02:55:37;2.70;87.80
60469;DHT22;46316;47.582;10.238;2022-11-15T03:01:00;2.70;87.70
60469;DHT22;46316;47.582;10.238;2022-11-15T03:09:16;2.50;88.00
60469;DHT22;46316;47.582;10.238;2022-11-15T03:11:50;2.50;88.20
60469;DHT22;46316;47.582;10.238;2022-11-15T03:14:36;2.50;88.40
60469;DHT22;46316;47.582;10.238;2022-11-15T03:17:26;2.50;88.50
60469;DHT22;46316;47.582;10.238;2022-11-15T03:19:58;2.50;88.50
60469;DHT22;46316;47.582;10.238;2022-11-15T03:22:27;2.50;88.80
60469;DHT22;46316;47.582;10.238;2022-11-15T03:25:00;2.50;88.70
60469;DHT22;46316;47.582;10.238;2022-11-15T03:27:35;2.50;88.70
60469;DHT22;46316;47.582;10.238;2022-11-15T03:30:07;2.50;88.70
60469;DHT22;46316;47.582;10.238;2022-11-15T03:32:40;2.50;88.70
60469;DHT22;46316;47.582;10.238;2022-11-15T03:35:10;2.60;88.50
60469;DHT22;46316;47.582;10.238;2022-11-15T03:37:51;2.50;88.30
60469;DHT22;46316;47.582;10.238;2022-11-15T03:40:17;2.50;88.30
60469;DHT22;46316;47.582;10.238;2022-11-15T03:42:58;2.50;88.10
60469;DHT22;46316;47.582;10.238;2022-11-15T03:45:31;2.40;88.20
60469;DHT22;46316;47.582;10.238;2022-11-15T03:48:13;2.40;88.00
60469;DHT22;46316;47.582;10.238;2022-11-15T03:50:40;2.40;88.10
60469;DHT22;46316;47.582;10.238;2022-11-15T03:53:07;2.30;88.10
60469;DHT22;46316;47.582;10.238;2022-11-15T03:55:33;2.30;87.80
60469;DHT22;46316;47.582;10.238;2022-11-15T03:58:00;2.30;88.20
60469;DHT22;46316;47.582;10.238;2022-11-15T04:00:26;2.30;88.10
60469;DHT22;46316;47.582;10.238;2022-11-15T04:02:52;2.30;88.20
60469;DHT22;46316;47.582;10.238;2022-11-15T04:05:18;2.20;88.10
60469;DHT22;46316;47.582;10.238;2022-11-15T04:07:43;2.30;88.20
60469;DHT22;46316;47.582;10.238;2022-11-15T04:10:12;2.30;88.40
60469;DHT22;46316;47.582;10.238;2022-11-15T04:12:44;2.30;88.30
60469;DHT22;46316;47.582;10.238;2022-11-15T04:15:17;2.20;88.40
60469;DHT22;46316;47.582;10.238;2022-11-15T04:17:45;2.30;88.40
60469;DHT22;46316;47.582;10.238;2022-11-15T04:20:19;2.30;88.50
60469;DHT22;46316;47.582;10.238;2022-11-15T04:23:06;2.30;88.50
60469;DHT22;46316;47.582;10.238;2022-11-15T04:25:52;2.30;88.30
60469;DHT22;46316;47.582;10.238;2022-11-15T04:28:19;2.30;88.30
60469;DHT22;46316;47.582;10.238;2022-11-15T04:30:45;2.20;88.10
60469;DHT22;46316;47.582;10.238;2022-11-15T04:33:10;2.20;88.30
60469;DHT22;46316;47.582;10.238;2022-11-15T04:35:36;2.20;88.30
60469;DHT22;46316;47.582;10.238;2022-11-15T04:38:05;2.20;88.50
60469;DHT22;46316;47.582;10.238;2022-11-15T04:40:31;2.20;88.50
60469;DHT22;46316;47.582;10.238;2022-11-15T04:42:57;2.20;88.60
60469;DHT22;46316;47.582;10.238;2022-11-15T04:45:22;2.10;88.60
60469;DHT22;46316;47.582;10.238;2022-11-15T04:47:48;2.10;88.50
60469;DHT22;46316;47.582;10.238;2022-11-15T04:50:15;2.20;89.00
60469;DHT22;46316;47.582;10.238;2022-11-15T04:52:42;2.20;88.90
60469;DHT22;46316;47.582;10.238;2022-11-15T04:55:09;2.20;88.80
60469;DHT22;46316;47.582;10.238;2022-11-15T04:57:35;2.10;88.90
60469;DHT22;46316;47.582;10.238;2022-11-15T05:00:04;2.20;89.00
60469;DHT22;46316;47.582;10.238;2022-11-15T05:02:30;2.10;88.90
60469;DHT22;46316;47.582;10.238;2022-11-15T05:05:15;2.10;89.00
60469;DHT22;46316;47.582;10.238;2022-11-15T05:07:41;2.10;89.10
60469;DHT22;46316;47.582;10.238;2022-11-15T05:10:07;2.10;89.00
60469;DHT22;46316;47.582;10.238;2022-11-15T05:12:32;2.20;88.90
60469;DHT22;46316;47.582;10.238;2022-11-15T05:14:58;2.10;88.80
60469;DHT22;46316;47.582;10.238;2022-11-15T05:17:23;2.10;88.50
60469;DHT22;46316;47.582;10.238;2022-11-15T05:19:49;2.10;88.50
60469;DHT22;46316;47.582;10.238;2022-11-15T05:22:14;2.00;88.60
60469;DHT22;46316;47.582;10.238;2022-11-15T05:24:40;2.00;88.80
60469;DHT22;46316;47.582;10.238;2022-11-15T05:27:06;2.00;88.90
60469;DHT22;46316;47.582;10.238;2022-11-15T05:29:31;2.00;89.00
60469;DHT22;46316;47.582;10.238;2022-11-15T05:31:57;1.90;89.00
60469;DHT22;46316;47.582;10.238;2022-11-15T05:34:22;1.90;89.20
60469;DHT22;46316;47.582;10.238;2022-11-15T05:36:51;1.90;89.10
60469;DHT22;46316;47.582;10.238;2022-11-15T05:39:16;1.90;89.10
60469;DHT22;46316;47.582;10.238;2022-11-15T05:41:46;1.80;89.00
60469;DHT22;46316;47.582;10.238;2022-11-15T05:44:12;1.80;89.10
60469;DHT22;46316;47.582;10.238;2022-11-15T05:46:40;1.80;89.20
60469;DHT22;46316;47.582;10.238;2022-11-15T05:49:07;1.70;89.10
60469;DHT22;46316;47.582;10.238;2022-11-15T05:51:36;1.70;89.30
60469;DHT22;46316;47.582;10.238;2022-11-15T05:54:02;1.70;89.40
60469;DHT22;46316;47.582;10.238;2022-11-15T05:56:28;1.70;89.40
60469;DHT22;46316;47.582;10.238;2022-11-15T06:01:29;1.70;89.50
60469;DHT22;46316;47.582;10.238;2022-11-15T06:03:55;1.70;89.60
60469;DHT22;46316;47.582;10.238;2022-11-15T06:06:20;1.70;89.50
60469;DHT22;46316;47.582;10.238;2022-11-15T06:08:46;1.70;89.50
60469;DHT22;46316;47.582;10.238;2022-11-15T06:11:13;1.60;89.40
60469;DHT22;46316;47.582;10.238;2022-11-15T06:13:38;1.60;89.60
60469;DHT22;46316;47.582;10.238;2022-11-15T06:16:04;1.60;89.40
60469;DHT22;46316;47.582;10.238;2022-11-15T06:18:35;1.60;89.50
60469;DHT22;46316;47.582;10.238;2022-11-15T06:21:01;1.60;89.60
60469;DHT22;46316;47.582;10.238;2022-11-15T06:23:27;1.50;89.60
60469;DHT22;46316;47.582;10.238;2022-11-15T06:25:53;1.50;89.70
60469;DHT22;46316;47.582;10.238;2022-11-15T06:28:19;1.50;89.80
60469;DHT22;46316;47.582;10.238;2022-11-15T06:30:44;1.50;90.00
60469;DHT22;46316;47.582;10.238;2022-11-15T06:33:10;1.60;89.80
60469;DHT22;46316;47.582;10.238;2022-11-15T06:35:35;1.60;89.90
60469;DHT22;46316;47.582;10.238;2022-11-15T06:38:06;1.70;89.90
60469;DHT22;46316;47.582;10.238;2022-11-15T06:40:36;1.70;89.80
60469;DHT22;46316;47.582;10.238;2022-11-15T06:43:03;1.70;89.80
60469;DHT22;46316;47.582;10.238;2022-11-15T06:45:29;1.70;89.60
60469;DHT22;46316;47.582;10.238;2022-11-15T06:47:55;1.70;89.50
60469;DHT22;46316;47.582;10.238;2022-11-15T06:50:21;1.70;89.40
60469;DHT22;46316;47.582;10.238;2022-11-15T06:52:46;1.80;89.30
60469;DHT22;46316;47.582;10.238;2022-11-15T06:55:12;1.90;89.40
60469;DHT22;46316;47.582;10.238;2022-11-15T06:57:49;1.90;89.20
60469;DHT22;46316;47.582;10.238;2022-11-15T07:00:16;1.90;89.30
60469;DHT22;46316;47.582;10.238;2022-11-15T07:02:42;2.00;89.00
60469;DHT22;46316;47.582;10.238;2022-11-15T07:05:08;2.00;88.50
60469;DHT22;46316;47.582;10.238;2022-11-15T07:07:33;2.00;88.60
60469;DHT22;46316;47.582;10.238;2022-11-15T07:09:59;2.10;88.50
60469;DHT22;46316;47.582;10.238;2022-11-15T07:12:24;2.10;88.40
60469;DHT22;46316;47.582;10.238;2022-11-15T07:14:50;2.20;88.40
60469;DHT22;46316;47.582;10.238;2022-11-15T07:17:15;2.20;88.10
60469;DHT22;46316;47.582;10.238;2022-11-15T07:19:41;2.20;88.10
60469;DHT22;46316;47.582;10.238;2022-11-15T07:22:07;2.30;88.10
60469;DHT22;46316;47.582;10.238;2022-11-15T07:24:32;2.30;87.90
60469;DHT22;46316;47.582;10.238;2022-11-15T07:26:58;2.40;87.80
60469;DHT22;46316;47.582;10.238;2022-11-15T07:29:23;2.40;87.80
60469;DHT22;46316;47.582;10.238;2022-11-15T07:31:49;2.40;87.70
60469;DHT22;46316;47.582;10.238;2022-11-15T07:34:16;2.40;87.90
60469;DHT22;46316;47.582;10.238;2022-11-15T07:36:41;2.50;87.80
60469;DHT22;46316;47.582;10.238;2022-11-15T07:39:07;2.60;87.30
60469;DHT22;46316;47.582;10.238;2022-11-15T07:41:32;2.50;86.90
60469;DHT22;46316;47.582;10.238;2022-11-15T07:43:58;2.60;86.50
60469;DHT22;46316;47.582;10.238;2022-11-15T07:46:24;2.50;85.80
60469;DHT22;46316;47.582;10.238;2022-11-15T07:48:49;2.50;86.20
60469;DHT22;46316;47.582;10.238;2022-11-15T07:51:16;2.50;86.60
60469;DHT22;46316;47.582;10.238;2022-11-15T07:53:43;2.50;86.90
60469;DHT22;46316;47.582;10.238;2022-11-15T07:56:09;2.60;87.20
60469;DHT22;46316;47.582;10.238;2022-11-15T07:58:34;2.70;87.40
60469;DHT22;46316;47.582;10.238;2022-11-15T08:01:07;2.80;87.50
60469;DHT22;46316;47.582;10.238;2022-11-15T08:03:34;2.90;87.70
60469;DHT22;46316;47.582;10.238;2022-11-15T08:06:00;3.00;87.80
60469;DHT22;46316;47.582;10.238;2022-11-15T08:08:25;3.10;87.90
60469;DHT22;46316;47.582;10.238;2022-11-15T08:10:51;3.20;87.90
60469;DHT22;46316;47.582;10.238;2022-11-15T08:13:17;3.30;87.80
60469;DHT22;46316;47.582;10.238;2022-11-15T08:15:42;3.40;87.90
60469;DHT22;46316;47.582;10.238;2022-11-15T08:18:14;3.50;87.80
60469;DHT22;46316;47.582;10.238;2022-11-15T08:20:40;3.70;88.20
60469;DHT22;46316;47.582;10.238;2022-11-15T08:23:07;3.90;88.00
60469;DHT22;46316;47.582;10.238;2022-11-15T08:25:34;4.00;87.70
60469;DHT22;46316;47.582;10.238;2022-11-15T08:28:05;4.30;87.10
60469;DHT22;46316;47.582;10.238;2022-11-15T08:30:35;4.50;86.40
60469;DHT22;46316;47.582;10.238;2022-11-15T08:33:01;5.10;84.80
60469;DHT22;46316;47.582;10.238;2022-11-15T08:35:28;6.20;83.00
60469;DHT22;46316;47.582;10.238;2022-11-15T08:37:54;7.10;79.20
60469;DHT22;46316;47.582;10.238;2022-11-15T08:40:20;8.40;77.30
60469;DHT22;46316;47.582;10.238;2022-11-15T08:42:46;9.40;73.20
60469;DHT22;46316;47.582;10.238;2022-11-15T08:45:12;10.00;68.70
60469;DHT22;46316;47.582;10.238;2022-11-15T08:47:38;10.70;66.70
60469;DHT22;46316;47.582;10.238;2022-11-15T08:50:04;11.70;64.80
60469;DHT22;46316;47.582;10.238;2022-11-15T08:52:30;12.50;59.50
60469;DHT22;46316;47.582;10.238;2022-11-15T08:54:55;13.30;57.60
60469;DHT22;46316;47.582;10.238;2022-11-15T08:57:21;13.80;55.40
60469;DHT22;46316;47.582;10.238;2022-11-15T08:59:47;13.70;55.10
60469;DHT22;46316;47.582;10.238;2022-11-15T09:02:13;13.50;55.10
60469;DHT22;46316;47.582;10.238;2022-11-15T09:04:40;14.00;53.70
60469;DHT22;46316;47.582;10.238;2022-11-15T09:07:08;14.20;54.00
60469;DHT22;46316;47.582;10.238;2022-11-15T09:09:33;14.40;52.00
60469;DHT22;46316;47.582;10.238;2022-11-15T09:11:59;14.50;52.60
60469;DHT22;46316;47.582;10.238;2022-11-15T09:14:24;14.20;52.70
60469;DHT22;46316;47.582;10.238;2022-11-15T09:16:50;14.90;51.00
60469;DHT22;46316;47.582;10.238;2022-11-15T09:19:15;14.70;51.30
60469;DHT22;46316;47.582;10.238;2022-11-15T09:21:41;14.90;51.40
60469;DHT22;46316;47.582;10.238;2022-11-15T09:24:07;14.90;51.30
60469;DHT22;46316;47.582;10.238;2022-11-15T09:26:32;14.70;50.90
60469;DHT22;46316;47.582;10.238;2022-11-15T09:28:58;14.50;51.10
60469;DHT22;46316;47.582;10.238;2022-11-15T09:31:23;14.90;51.30
60469;DHT22;46316;47.582;10.238;2022-11-15T09:33:49;15.00;50.70
60469;DHT22;46316;47.582;10.238;2022-11-15T09:36:15;15.30;50.30
60469;DHT22;46316;47.582;10.238;2022-11-15T09:38:42;15.40;50.00
60469;DHT22;46316;47.582;10.238;2022-11-15T09:49:02;15.30;50.70
60469;DHT22;46316;47.582;10.238;2022-11-15T09:51:35;15.30;50.60
60469;DHT22;46316;47.582;10.238;2022-11-15T09:56:31;15.10;51.20
60469;DHT22;46316;47.582;10.238;2022-11-15T09:59:22;15.20;51.00
60469;DHT22;46316;47.582;10.238;2022-11-15T10:04:39;15.40;50.60
60469;DHT22;46316;47.582;10.238;2022-11-15T10:07:16;15.00;50.80
60469;DHT22;46316;47.582;10.238;2022-11-15T10:09:46;14.90;50.70
60469;DHT22;46316;47.582;10.238;2022-11-15T10:12:13;14.90;50.90
60469;DHT22;46316;47.582;10.238;2022-11-15T10:14:39;14.80;51.20
60469;DHT22;46316;47.582;10.238;2022-11-15T10:17:20;14.80;51.60
60469;DHT22;46316;47.582;10.238;2022-11-15T10:20:05;14.90;51.70
60469;DHT22;46316;47.582;10.238;2022-11-15T10:22:38;14.80;51.40
60469;DHT22;46316;47.582;10.238;2022-11-15T10:27:39;14.90;51.30
60469;DHT22;46316;47.582;10.238;2022-11-15T10:30:13;14.70;52.20
60469;DHT22;46316;47.582;10.238;2022-11-15T10:32:39;14.90;51.50
60469;DHT22;46316;47.582;10.238;2022-11-15T10:35:32;14.80;51.70
60469;DHT22;46316;47.582;10.238;2022-11-15T10:38:06;14.90;52.60
60469;DHT22;46316;47.582;10.238;2022-11-15T10:40:32;14.90;53.50
60469;DHT22;46316;47.582;10.238;2022-11-15T10:45:35;14.70;53.60
60469;DHT22;46316;47.582;10.238;2022-11-15T10:48:22;14.60;53.40
60469;DHT22;46316;47.582;10.238;2022-11-15T10:50:49;14.50;53.60
60469;DHT22;46316;47.582;10.238;2022-11-15T10:53:37;14.50;52.70
60469;DHT22;46316;47.582;10.238;2022-11-15T10:56:06;14.40;51.70
60469;DHT22;46316;47.582;10.238;2022-11-15T10:58:37;14.30;51.70
60469;DHT22;46316;47.582;10.238;2022-11-15T11:01:10;14.20;51.50
60469;DHT22;46316;47.582;10.238;2022-11-15T11:03:37;14.10;51.80
60469;DHT22;46316;47.582;10.238;2022-11-15T11:06:13;14.10;51.90
60469;DHT22;46316;47.582;10.238;2022-11-15T11:08:41;14.00;52.50
60469;DHT22;46316;47.582;10.238;2022-11-15T11:11:18;14.00;52.30
60469;DHT22;46316;47.582;10.238;2022-11-15T11:13:43;14.00;53.10
60469;DHT22;46316;47.582;10.238;2022-11-15T11:19:35;13.80;54.60
60469;DHT22;46316;47.582;10.238;2022-11-15T11:25:57;13.80;53.20
60469;DHT22;46316;47.582;10.238;2022-11-15T11:28:03;13.80;54.70
60469;DHT22;46316;47.582;10.238;2022-11-15T11:33:09;13.50;56.50
60469;DHT22;46316;47.582;10.238;2022-11-15T11:38:25;13.50;56.60
60469;DHT22;46316;47.582;10.238;2022-11-15T11:43:51;13.40;57.60
60469;DHT22;46316;47.582;10.238;2022-11-15T11:46:28;13.10;59.70
60469;DHT22;46316;47.582;10.238;2022-11-15T11:49:01;12.90;60.40
60469;DHT22;46316;47.582;10.238;2022-11-15T11:51:32;13.00;59.10
60469;DHT22;46316;47.582;10.238;2022-11-15T11:56:50;13.00;58.60
60469;DHT22;46316;47.582;10.238;2022-11-15T12:01:48;13.20;59.10
60469;DHT22;46316;47.582;10.238;2022-11-15T12:07:19;13.20;58.80
60469;DHT22;46316;47.582;10.238;2022-11-15T12:09:58;13.10;58.30
60469;DHT22;46316;47.582;10.238;2022-11-15T12:17:34;12.70;58.60
60469;DHT22;46316;47.582;10.238;2022-11-15T12:20:18;12.60;59.30
60469;DHT22;46316;47.582;10.238;2022-11-15T12:31:11;12.40;60.80
60469;DHT22;46316;47.582;10.238;2022-11-15T12:33:44;12.60;61.40
60469;DHT22;46316;47.582;10.238;2022-11-15T12:36:30;12.80;61.80
60469;DHT22;46316;47.582;10.238;2022-11-15T12:39:04;12.90;60.50
60469;DHT22;46316;47.582;10.238;2022-11-15T12:47:26;13.30;55.60
60469;DHT22;46316;47.582;10.238;2022-11-15T12:49:52;13.20;56.50
60469;DHT22;46316;47.582;10.238;2022-11-15T12:52:18;13.10;57.30
60469;DHT22;46316;47.582;10.238;2022-11-15T12:54:53;13.00;57.50
60469;DHT22;46316;47.582;10.238;2022-11-15T13:02:35;12.80;57.40
60469;DHT22;46316;47.582;10.238;2022-11-15T13:17:48;12.70;58.20
60469;DHT22;46316;47.582;10.238;2022-11-15T13:23:07;12.50;58.50
60469;DHT22;46316;47.582;10.238;2022-11-15T13:30:37;12.10;58.80
60469;DHT22;46316;47.582;10.238;2022-11-15T13:33:18;12.00;59.00
60469;DHT22;46316;47.582;10.238;2022-11-15T13:35:47;11.90;59.40
60469;DHT22;46316;47.582;10.238;2022-11-15T13:38:27;11.80;60.30
60469;DHT22;46316;47.582;10.238;2022-11-15T13:40:53;11.70;60.20
60469;DHT22;46316;47.582;10.238;2022-11-15T13:46:18;11.70;61.90
60469;DHT22;46316;47.582;10.238;2022-11-15T13:48:45;11.70;62.20
60469;DHT22;46316;47.582;10.238;2022-11-15T13:53:49;11.70;62.40
60469;DHT22;46316;47.582;10.238;2022-11-15T13:56:17;11.70;62.30
60469;DHT22;46316;47.582;10.238;2022-11-15T13:58:44;11.80;62.50
60469;DHT22;46316;47.582;10.238;2022-11-15T14:01:18;11.80;63.00
60469;DHT22;46316;47.582;10.238;2022-11-15T14:03:52;11.70;63.50
60469;DHT22;46316;47.582;10.238;2022-11-15T14:06:20;11.70;64.00
60469;DHT22;46316;47.582;10.238;2022-11-15T14:11:36;11.60;64.50
60469;DHT22;46316;47.582;10.238;2022-11-15T14:14:12;11.60;64.70
60469;DHT22;46316;47.582;10.238;2022-11-15T14:16:40;11.50;65.00
60469;DHT22;46316;47.582;10.238;2022-11-15T14:19:09;11.60;65.40
60469;DHT22;46316;47.582;10.238;2022-11-15T14:21:35;11.60;65.40
60469;DHT22;46316;47.582;10.238;2022-11-15T14:24:17;11.50;65.40
60469;DHT22;46316;47.582;10.238;2022-11-15T14:26:44;11.60;66.10
60469;DHT22;46316;47.582;10.238;2022-11-15T14:29:25;11.50;66.50
60469;DHT22;46316;47.582;10.238;2022-11-15T14:31:52;11.50;66.70
60469;DHT22;46316;47.582;10.238;2022-11-15T14:34:17;11.40;66.80
60469;DHT22;46316;47.582;10.238;2022-11-15T14:36:43;11.40;67.10
60469;DHT22;46316;47.582;10.238;2022-11-15T14:39:09;11.40;67.50
60469;DHT22;46316;47.582;10.238;2022-11-15T14:41:36;11.30;67.60
60469;DHT22;46316;47.582;10.238;2022-11-15T14:44:05;11.10;68.10
60469;DHT22;46316;47.582;10.238;2022-11-15T14:46:31;11.10;68.60
60469;DHT22;46316;47.582;10.238;2022-11-15T14:48:57;11.00;68.80
60469;DHT22;46316;47.582;10.238;2022-11-15T14:51:23;10.90;68.70
60469;DHT22;46316;47.582;10.238;2022-11-15T14:53:48;10.80;69.00
60469;DHT22;46316;47.582;10.238;2022-11-15T14:56:14;10.60;69.30
60469;DHT22;46316;47.582;10.238;2022-11-15T14:58:41;10.60;69.80
60469;DHT22;46316;47.582;10.238;2022-11-15T15:01:19;10.50;70.20
60469;DHT22;46316;47.582;10.238;2022-11-15T15:03:45;10.50;70.10
60469;DHT22;46316;47.582;10.238;2022-11-15T15:06:11;10.50;70.30
60469;DHT22;46316;47.582;10.238;2022-11-15T15:08:38;10.40;70.30
60469;DHT22;46316;47.582;10.238;2022-11-15T15:11:21;10.40;70.70
60469;DHT22;46316;47.582;10.238;2022-11-15T15:13:47;10.40;71.10
60469;DHT22;46316;47.582;10.238;2022-11-15T15:16:12;10.30;71.50
60469;DHT22;46316;47.582;10.238;2022-11-15T15:18:38;10.30;71.60
60469;DHT22;46316;47.582;10.238;2022-11-15T15:21:24;10.20;72.50
60469;DHT22;46316;47.582;10.238;2022-11-15T15:23:50;10.10;72.60
60469;DHT22;46316;47.582;10.238;2022-11-15T15:26:16;10.10;73.40
60469;DHT22;46316;47.582;10.238;2022-11-15T15:28:42;10.00;73.80
60469;DHT22;46316;47.582;10.238;2022-11-15T15:31:11;9.90;74.30
60469;DHT22;46316;47.582;10.238;2022-11-15T15:33:39;9.90;74.60
60469;DHT22;46316;47.582;10.238;2022-11-15T15:36:11;9.80;74.70
60469;DHT22;46316;47.582;10.238;2022-11-15T15:38:37;9.70;75.10
60469;DHT22;46316;47.582;10.238;2022-11-15T15:41:04;9.70;75.50
60469;DHT22;46316;47.582;10.238;2022-11-15T15:43:29;9.70;75.80
60469;DHT22;46316;47.582;10.238;2022-11-15T15:45:55;9.60;76.20
60469;DHT22;46316;47.582;10.238;2022-11-15T15:48:20;9.50;76.30
60469;DHT22;46316;47.582;10.238;2022-11-15T15:50:46;9.50;76.60
60469;DHT22;46316;47.582;10.238;2022-11-15T15:53:12;9.50;77.10
60469;DHT22;46316;47.582;10.238;2022-11-15T15:55:38;9.40;77.20
60469;DHT22;46316;47.582;10.238;2022-11-15T15:58:04;9.40;77.40
60469;DHT22;46316;47.582;10.238;2022-11-15T16:00:30;9.40;77.30
60469;DHT22;46316;47.582;10.238;2022-11-15T16:02:58;9.30;77.40
60469;DHT22;46316;47.582;10.238;2022-11-15T16:05:25;9.30;77.20
60469;DHT22;46316;47.582;10.238;2022-11-15T16:07:50;9.20;77.00
60469;DHT22;46316;47.582;10.238;2022-11-15T16:10:27;9.20;77.40
60469;DHT22;46316;47.582;10.238;2022-11-15T16:12:55;9.20;78.10
60469;DHT22;46316;47.582;10.238;2022-11-15T16:15:24;9.20;78.70
60469;DHT22;46316;47.582;10.238;2022-11-15T16:17:55;9.20;78.60
60469;DHT22;46316;47.582;10.238;2022-11-15T16:20:35;9.20;78.50
60469;DHT22;46316;47.582;10.238;2022-11-15T16:23:02;9.10;78.50
60469;DHT22;46316;47.582;10.238;2022-11-15T16:25:28;9.10;78.70
60469;DHT22;46316;47.582;10.238;2022-11-15T16:27:54;9.00;78.70
60469;DHT22;46316;47.582;10.238;2022-11-15T16:30:21;9.00;78.90
60469;DHT22;46316;47.582;10.238;2022-11-15T16:32:47;8.90;78.90
60469;DHT22;46316;47.582;10.238;2022-11-15T16:35:14;8.90;79.20
60469;DHT22;46316;47.582;10.238;2022-11-15T16:37:41;8.90;79.40
60469;DHT22;46316;47.582;10.238;2022-11-15T16:40:26;8.90;79.60
60469;DHT22;46316;47.582;10.238;2022-11-15T16:42:52;8.90;79.60
60469;DHT22;46316;47.582;10.238;2022-11-15T16:45:17;8.90;80.00
60469;DHT22;46316;47.582;10.238;2022-11-15T16:47:43;8.90;79.80
60469;DHT22;46316;47.582;10.238;2022-11-15T16:50:20;8.80;79.70
60469;DHT22;46316;47.582;10.238;2022-11-15T16:52:52;8.80;79.60
60469;DHT22;46316;47.582;10.238;2022-11-15T16:55:18;8.80;79.60
60469;DHT22;46316;47.582;10.238;2022-11-15T16:57:44;8.80;79.80
60469;DHT22;46316;47.582;10.238;2022-11-15T17:00:11;8.80;79.90
60469;DHT22;46316;47.582;10.238;2022-11-15T17:02:38;8.80;80.10
60469;DHT22;46316;47.582;10.238;2022-11-15T17:05:03;8.70;80.10
60469;DHT22;46316;47.582;10.238;2022-11-15T17:07:29;8.70;80.20
60469;DHT22;46316;47.582;10.238;2022-11-15T17:09:55;8.70;80.20
60469;DHT22;46316;47.582;10.238;2022-11-15T17:12:20;8.70;80.30
60469;DHT22;46316;47.582;10.238;2022-11-15T17:14:46;8.70;80.30
60469;DHT22;46316;47.582;10.238;2022-11-15T17:17:11;8.70;80.40
60469;DHT22;46316;47.582;10.238;2022-11-15T17:19:37;8.60;80.30
60469;DHT22;46316;47.582;10.238;2022-11-15T17:22:02;8.60;80.30
60469;DHT22;46316;47.582;10.238;2022-11-15T17:24:28;8.60;80.10
60469;DHT22;46316;47.582;10.238;2022-11-15T17:26:53;8.60;80.40
60469;DHT22;46316;47.582;10.238;2022-11-15T17:29:19;8.50;80.40
60469;DHT22;46316;47.582;10.238;2022-11-15T17:31:44;8.50;80.40
60469;DHT22;46316;47.582;10.238;2022-11-15T17:34:10;8.50;80.30
60469;DHT22;46316;47.582;10.238;2022-11-15T17:36:36;8.50;80.50
60469;DHT22;46316;47.582;10.238;2022-11-15T17:39:02;8.50;80.50